sensor_id;sensor_type;location;lat;lon;timestamp;temperature;humidity
3699;DHT22;1865;50.918;7.092;2022-10-04T00:00:39;13.40;59.80
3699;DHT22;1865;50.918;7.092;2022-10-04T00:05:39;13.40;60.30
3699;DHT22;1865;50.918;7.092;2022-10-04T00:08:40;13.50;60.00
3699;DHT22;1865;50.918;7.092;2022-10-04T00:11:17;13.50;59.60
3699;DHT22;1865;50.918;7.092;2022-10-04T00:13:49;13.50;60.10
3699;DHT22;1865;50.918;7.092;2022-10-04T00:16:43;13.60;60.20
3699;DHT22;1865;50.918;7.092;2022-10-04T00:24:25;13.60;59.80
3699;DHT22;1865;50.918;7.092;2022-10-04T00:29:37;13.70;59.70
3699;DHT22;1865;50.918;7.092;2022-10-04T00:34:48;13.60;59.40
3699;DHT22;1865;50.918;7.092;2022-10-04T00:37:15;13.50;59.20
3699;DHT22;1865;50.918;7.092;2022-10-04T00:40:01;13.50;59.90
3699;DHT22;1865;50.918;7.092;2022-10-04T00:42:51;13.50;59.80
3699;DHT22;1865;50.918;7.092;2022-10-04T00:48:14;13.40;59.80
3699;DHT22;1865;50.918;7.092;2022-10-04T00:50:46;13.40;60.10
3699;DHT22;1865;50.918;7.092;2022-10-04T00:53:19;13.40;60.00
3699;DHT22;1865;50.918;7.092;2022-10-04T00:55:57;13.30;60.60
3699;DHT22;1865;50.918;7.092;2022-10-04T00:58:33;13.30;60.80
3699;DHT22;1865;50.918;7.092;2022-10-04T01:01:00;13.30;60.70
3699;DHT22;1865;50.918;7.092;2022-10-04T01:03:31;13.40;60.90
3699;DHT22;1865;50.918;7.092;2022-10-04T01:06:00;13.50;60.60
3699;DHT22;1865;50.918;7.092;2022-10-04T01:08:53;13.50;60.20
3699;DHT22;1865;50.918;7.092;2022-10-04T01:11:28;13.50;60.20
3699;DHT22;1865;50.918;7.092;2022-10-04T01:14:12;13.50;60.10
3699;DHT22;1865;50.918;7.092;2022-10-04T01:16:43;13.40;60.60
3699;DHT22;1865;50.918;7.092;2022-10-04T01:19:28;13.40;60.00
3699;DHT22;1865;50.918;7.092;2022-10-04T01:22:09;13.40;60.40
3699;DHT22;1865;50.918;7.092;2022-10-04T01:24:42;13.40;60.30
3699;DHT22;1865;50.918;7.092;2022-10-04T01:29:56;13.50;60.10
3699;DHT22;1865;50.918;7.092;2022-10-04T01:32:23;13.50;59.80
3699;DHT22;1865;50.918;7.092;2022-10-04T01:34:51;13.50;59.70
3699;DHT22;1865;50.918;7.092;2022-10-04T01:37:16;13.40;60.00
3699;DHT22;1865;50.918;7.092;2022-10-04T01:39:42;13.40;59.90
3699;DHT22;1865;50.918;7.092;2022-10-04T01:42:47;13.40;59.90
3699;DHT22;1865;50.918;7.092;2022-10-04T01:45:37;13.50;60.30
3699;DHT22;1865;50.918;7.092;2022-10-04T01:48:08;13.60;60.00
3699;DHT22;1865;50.918;7.092;2022-10-04T01:50:42;13.60;59.70
3699;DHT22;1865;50.918;7.092;2022-10-04T01:53:34;13.60;60.00
3699;DHT22;1865;50.918;7.092;2022-10-04T01:56:16;13.50;59.90
3699;DHT22;1865;50.918;7.092;2022-10-04T01:58:48;13.50;59.60
3699;DHT22;1865;50.918;7.092;2022-10-04T02:01:49;13.40;59.70
3699;DHT22;1865;50.918;7.092;2022-10-04T02:04:21;13.50;60.00
3699;DHT22;1865;50.918;7.092;2022-10-04T02:06:50;13.50;60.00
3699;DHT22;1865;50.918;7.092;2022-10-04T02:09:33;13.40;59.70
3699;DHT22;1865;50.918;7.092;2022-10-04T02:12:00;13.50;60.20
3699;DHT22;1865;50.918;7.092;2022-10-04T02:14:31;13.50;60.00
3699;DHT22;1865;50.918;7.092;2022-10-04T02:17:04;13.40;59.40
3699;DHT22;1865;50.918;7.092;2022-10-04T02:19:36;13.50;59.80
3699;DHT22;1865;50.918;7.092;2022-10-04T02:22:04;13.40;59.20
3699;DHT22;1865;50.918;7.092;2022-10-04T02:24:36;13.40;59.20
3699;DHT22;1865;50.918;7.092;2022-10-04T02:27:03;13.30;59.50
3699;DHT22;1865;50.918;7.092;2022-10-04T02:29:30;13.30;59.30
3699;DHT22;1865;50.918;7.092;2022-10-04T02:31:57;13.30;59.60
3699;DHT22;1865;50.918;7.092;2022-10-04T02:34:42;13.30;59.50
3699;DHT22;1865;50.918;7.092;2022-10-04T02:37:09;13.20;59.60
3699;DHT22;1865;50.918;7.092;2022-10-04T02:39:43;13.30;59.50
3699;DHT22;1865;50.918;7.092;2022-10-04T02:45:01;13.20;59.00
3699;DHT22;1865;50.918;7.092;2022-10-04T02:47:39;13.10;59.10
3699;DHT22;1865;50.918;7.092;2022-10-04T02:50:16;13.00;59.50
3699;DHT22;1865;50.918;7.092;2022-10-04T02:52:52;13.00;59.40
3699;DHT22;1865;50.918;7.092;2022-10-04T02:55:22;13.00;59.30
3699;DHT22;1865;50.918;7.092;2022-10-04T02:57:50;12.90;59.50
3699;DHT22;1865;50.918;7.092;2022-10-04T03:00:24;12.90;59.60
3699;DHT22;1865;50.918;7.092;2022-10-04T03:05:43;12.90;59.70
3699;DHT22;1865;50.918;7.092;2022-10-04T03:08:10;12.90;59.90
3699;DHT22;1865;50.918;7.092;2022-10-04T03:10:36;12.80;59.50
3699;DHT22;1865;50.918;7.092;2022-10-04T03:13:02;12.90;59.70
3699;DHT22;1865;50.918;7.092;2022-10-04T03:15:34;12.80;59.60
3699;DHT22;1865;50.918;7.092;2022-10-04T03:18:00;12.80;59.20
3699;DHT22;1865;50.918;7.092;2022-10-04T03:20:26;12.80;59.50
3699;DHT22;1865;50.918;7.092;2022-10-04T03:22:53;12.80;59.70
3699;DHT22;1865;50.918;7.092;2022-10-04T03:25:26;12.80;60.00
3699;DHT22;1865;50.918;7.092;2022-10-04T03:27:54;12.80;59.90
3699;DHT22;1865;50.918;7.092;2022-10-04T03:30:21;12.80;60.00
3699;DHT22;1865;50.918;7.092;2022-10-04T03:32:47;12.80;60.20
3699;DHT22;1865;50.918;7.092;2022-10-04T03:35:35;12.70;60.70
3699;DHT22;1865;50.918;7.092;2022-10-04T03:38:05;12.60;60.60
3699;DHT22;1865;50.918;7.092;2022-10-04T03:40:34;12.60;60.90
3699;DHT22;1865;50.918;7.092;2022-10-04T03:43:04;12.60;60.60
3699;DHT22;1865;50.918;7.092;2022-10-04T03:45:30;12.60;60.90
3699;DHT22;1865;50.918;7.092;2022-10-04T03:48:04;12.50;60.90
3699;DHT22;1865;50.918;7.092;2022-10-04T03:50:36;12.50;61.30
3699;DHT22;1865;50.918;7.092;2022-10-04T03:53:10;12.60;61.60
3699;DHT22;1865;50.918;7.092;2022-10-04T03:55:39;12.70;61.60
3699;DHT22;1865;50.918;7.092;2022-10-04T03:58:10;12.90;61.00
3699;DHT22;1865;50.918;7.092;2022-10-04T04:00:47;12.90;60.60
3699;DHT22;1865;50.918;7.092;2022-10-04T04:03:20;12.90;60.10
3699;DHT22;1865;50.918;7.092;2022-10-04T04:05:52;13.00;60.20
3699;DHT22;1865;50.918;7.092;2022-10-04T04:10:51;13.00;59.80
3699;DHT22;1865;50.918;7.092;2022-10-04T04:13:28;13.00;59.70
3699;DHT22;1865;50.918;7.092;2022-10-04T04:16:00;12.90;59.60
3699;DHT22;1865;50.918;7.092;2022-10-04T04:18:29;12.90;59.40
3699;DHT22;1865;50.918;7.092;2022-10-04T04:20:58;12.90;59.90
3699;DHT22;1865;50.918;7.092;2022-10-04T04:23:31;12.90;59.40
3699;DHT22;1865;50.918;7.092;2022-10-04T04:26:17;12.70;59.80
3699;DHT22;1865;50.918;7.092;2022-10-04T04:28:48;12.60;60.90
3699;DHT22;1865;50.918;7.092;2022-10-04T04:31:40;12.50;61.00
3699;DHT22;1865;50.918;7.092;2022-10-04T04:34:21;12.50;61.50
3699;DHT22;1865;50.918;7.092;2022-10-04T04:36:49;12.70;61.00
3699;DHT22;1865;50.918;7.092;2022-10-04T04:39:19;12.70;60.60
3699;DHT22;1865;50.918;7.092;2022-10-04T04:42:14;12.80;60.20
3699;DHT22;1865;50.918;7.092;2022-10-04T04:44:58;12.70;60.00
3699;DHT22;1865;50.918;7.092;2022-10-04T04:47:29;12.70;60.10
3699;DHT22;1865;50.918;7.092;2022-10-04T04:50:20;12.60;60.60
3699;DHT22;1865;50.918;7.092;2022-10-04T04:52:49;12.60;60.70
3699;DHT22;1865;50.918;7.092;2022-10-04T04:55:20;12.60;61.00
3699;DHT22;1865;50.918;7.092;2022-10-04T04:57:52;12.60;60.30
3699;DHT22;1865;50.918;7.092;2022-10-04T05:00:23;12.60;60.20
3699;DHT22;1865;50.918;7.092;2022-10-04T05:02:55;12.70;60.40
3699;DHT22;1865;50.918;7.092;2022-10-04T05:05:28;12.70;59.70
3699;DHT22;1865;50.918;7.092;2022-10-04T05:08:17;12.60;60.20
3699;DHT22;1865;50.918;7.092;2022-10-04T05:10:46;12.50;60.50
3699;DHT22;1865;50.918;7.092;2022-10-04T05:13:15;12.40;60.90
3699;DHT22;1865;50.918;7.092;2022-10-04T05:15:42;12.40;61.30
3699;DHT22;1865;50.918;7.092;2022-10-04T05:18:28;12.30;61.80
3699;DHT22;1865;50.918;7.092;2022-10-04T05:20:57;12.30;61.40
3699;DHT22;1865;50.918;7.092;2022-10-04T05:23:24;12.20;62.00
3699;DHT22;1865;50.918;7.092;2022-10-04T05:25:50;12.10;62.30
3699;DHT22;1865;50.918;7.092;2022-10-04T05:28:16;12.10;62.40
3699;DHT22;1865;50.918;7.092;2022-10-04T05:33:44;12.30;61.60
3699;DHT22;1865;50.918;7.092;2022-10-04T05:38:59;12.40;61.10
3699;DHT22;1865;50.918;7.092;2022-10-04T05:41:57;12.40;61.30
3699;DHT22;1865;50.918;7.092;2022-10-04T05:44:30;12.60;60.60
3699;DHT22;1865;50.918;7.092;2022-10-04T05:47:00;12.60;60.60
3699;DHT22;1865;50.918;7.092;2022-10-04T05:49:41;12.60;60.10
3699;DHT22;1865;50.918;7.092;2022-10-04T05:52:37;12.60;60.30
3699;DHT22;1865;50.918;7.092;2022-10-04T05:55:20;12.70;60.60
3699;DHT22;1865;50.918;7.092;2022-10-04T06:04:03;12.70;60.10
3699;DHT22;1865;50.918;7.092;2022-10-04T06:06:39;12.60;60.20
3699;DHT22;1865;50.918;7.092;2022-10-04T06:09:39;12.60;60.80
3699;DHT22;1865;50.918;7.092;2022-10-04T06:14:46;12.60;61.00
3699;DHT22;1865;50.918;7.092;2022-10-04T06:20:40;12.80;60.50
3699;DHT22;1865;50.918;7.092;2022-10-04T06:23:17;12.70;61.10
3699;DHT22;1865;50.918;7.092;2022-10-04T06:25:52;12.80;60.70
3699;DHT22;1865;50.918;7.092;2022-10-04T06:37:04;13.10;59.70
3699;DHT22;1865;50.918;7.092;2022-10-04T06:43:10;13.20;59.70
3699;DHT22;1865;50.918;7.092;2022-10-04T06:49:09;13.00;59.80
3699;DHT22;1865;50.918;7.092;2022-10-04T07:00:25;13.40;60.10
3699;DHT22;1865;50.918;7.092;2022-10-04T07:03:07;13.40;60.10
3699;DHT22;1865;50.918;7.092;2022-10-04T07:05:47;13.50;59.50
3699;DHT22;1865;50.918;7.092;2022-10-04T07:08:29;13.50;59.60
3699;DHT22;1865;50.918;7.092;2022-10-04T07:11:21;13.50;59.80
3699;DHT22;1865;50.918;7.092;2022-10-04T07:14:11;13.60;59.70
3699;DHT22;1865;50.918;7.092;2022-10-04T07:16:41;13.70;59.60
3699;DHT22;1865;50.918;7.092;2022-10-04T07:19:28;13.80;59.60
3699;DHT22;1865;50.918;7.092;2022-10-04T07:22:31;13.80;59.30
3699;DHT22;1865;50.918;7.092;2022-10-04T07:25:14;13.90;59.70
3699;DHT22;1865;50.918;7.092;2022-10-04T07:27:55;14.00;59.40
3699;DHT22;1865;50.918;7.092;2022-10-04T07:30:50;14.10;59.30
3699;DHT22;1865;50.918;7.092;2022-10-04T07:33:22;14.20;59.40
3699;DHT22;1865;50.918;7.092;2022-10-04T07:36:18;14.20;59.30
3699;DHT22;1865;50.918;7.092;2022-10-04T07:39:10;14.40;59.20
3699;DHT22;1865;50.918;7.092;2022-10-04T07:41:52;14.50;59.20
3699;DHT22;1865;50.918;7.092;2022-10-04T07:44:35;14.70;58.80
3699;DHT22;1865;50.918;7.092;2022-10-04T07:47:22;14.80;59.00
3699;DHT22;1865;50.918;7.092;2022-10-04T07:49:50;14.90;57.90
3699;DHT22;1865;50.918;7.092;2022-10-04T07:58:06;14.90;58.30
3699;DHT22;1865;50.918;7.092;2022-10-04T08:11:58;15.20;57.30
3699;DHT22;1865;50.918;7.092;2022-10-04T08:14:47;15.40;57.20
3699;DHT22;1865;50.918;7.092;2022-10-04T08:23:25;15.70;56.60
3699;DHT22;1865;50.918;7.092;2022-10-04T08:37:37;15.60;56.30
3699;DHT22;1865;50.918;7.092;2022-10-04T08:49:26;16.10;56.50
3699;DHT22;1865;50.918;7.092;2022-10-04T08:58:12;16.00;54.90
3699;DHT22;1865;50.918;7.092;2022-10-04T09:03:47;16.20;55.60
3699;DHT22;1865;50.918;7.092;2022-10-04T09:09:23;16.40;55.30
3699;DHT22;1865;50.918;7.092;2022-10-04T09:14:52;16.90;53.70
3699;DHT22;1865;50.918;7.092;2022-10-04T09:21:11;16.80;52.10
3699;DHT22;1865;50.918;7.092;2022-10-04T09:32:40;17.30;51.70
3699;DHT22;1865;50.918;7.092;2022-10-04T09:40:46;17.60;50.60
3699;DHT22;1865;50.918;7.092;2022-10-04T10:00:42;18.20;49.40
3699;DHT22;1865;50.918;7.092;2022-10-04T10:03:24;18.40;49.80
3699;DHT22;1865;50.918;7.092;2022-10-04T10:06:15;18.60;48.90
3699;DHT22;1865;50.918;7.092;2022-10-04T10:15:14;18.80;47.40
3699;DHT22;1865;50.918;7.092;2022-10-04T10:18:03;18.80;47.00
3699;DHT22;1865;50.918;7.092;2022-10-04T10:21:05;18.80;47.30
3699;DHT22;1865;50.918;7.092;2022-10-04T10:35:00;19.50;47.90
3699;DHT22;1865;50.918;7.092;2022-10-04T10:40:45;19.60;46.80
3699;DHT22;1865;50.918;7.092;2022-10-04T10:44:11;19.70;46.40
3699;DHT22;1865;50.918;7.092;2022-10-04T10:46:38;19.90;45.70
3699;DHT22;1865;50.918;7.092;2022-10-04T10:49:30;19.80;45.20
3699;DHT22;1865;50.918;7.092;2022-10-04T10:55:27;19.90;45.20
3699;DHT22;1865;50.918;7.092;2022-10-04T10:58:28;20.00;45.60
3699;DHT22;1865;50.918;7.092;2022-10-04T11:01:30;20.20;45.00
3699;DHT22;1865;50.918;7.092;2022-10-04T11:09:54;20.20;46.00
3699;DHT22;1865;50.918;7.092;2022-10-04T11:15:38;20.40;45.20
3699;DHT22;1865;50.918;7.092;2022-10-04T11:24:29;20.70;45.00
3699;DHT22;1865;50.918;7.092;2022-10-04T11:27:24;20.60;44.90
3699;DHT22;1865;50.918;7.092;2022-10-04T11:32:43;20.70;44.30
3699;DHT22;1865;50.918;7.092;2022-10-04T11:36:21;20.70;44.00
3699;DHT22;1865;50.918;7.092;2022-10-04T11:38:55;20.70;44.70
3699;DHT22;1865;50.918;7.092;2022-10-04T11:42:00;20.60;44.70
3699;DHT22;1865;50.918;7.092;2022-10-04T11:44:41;20.60;44.30
3699;DHT22;1865;50.918;7.092;2022-10-04T11:47:27;20.70;44.70
3699;DHT22;1865;50.918;7.092;2022-10-04T11:55:41;21.20;43.70
3699;DHT22;1865;50.918;7.092;2022-10-04T12:04:20;21.30;42.60
3699;DHT22;1865;50.918;7.092;2022-10-04T12:09:53;21.50;42.80
3699;DHT22;1865;50.918;7.092;2022-10-04T12:24:40;22.20;40.90
3699;DHT22;1865;50.918;7.092;2022-10-04T12:33:34;22.30;39.50
3699;DHT22;1865;50.918;7.092;2022-10-04T12:36:23;22.30;39.80
3699;DHT22;1865;50.918;7.092;2022-10-04T12:39:23;22.30;39.60
3699;DHT22;1865;50.918;7.092;2022-10-04T12:42:28;22.20;39.60
3699;DHT22;1865;50.918;7.092;2022-10-04T12:44:53;22.30;40.40
3699;DHT22;1865;50.918;7.092;2022-10-04T12:47:44;22.30;40.10
3699;DHT22;1865;50.918;7.092;2022-10-04T12:57:21;22.30;39.00
3699;DHT22;1865;50.918;7.092;2022-10-04T13:04:46;23.30;39.70
3699;DHT22;1865;50.918;7.092;2022-10-04T13:19:10;24.10;38.30
3699;DHT22;1865;50.918;7.092;2022-10-04T13:24:24;25.90;34.90
3699;DHT22;1865;50.918;7.092;2022-10-04T13:27:06;26.80;34.30
3699;DHT22;1865;50.918;7.092;2022-10-04T13:29:52;27.00;32.60
3699;DHT22;1865;50.918;7.092;2022-10-04T13:32:27;26.70;32.60
3699;DHT22;1865;50.918;7.092;2022-10-04T13:49:54;25.90;33.30
3699;DHT22;1865;50.918;7.092;2022-10-04T13:52:35;25.60;34.20
3699;DHT22;1865;50.918;7.092;2022-10-04T13:55:58;25.30;35.60
3699;DHT22;1865;50.918;7.092;2022-10-04T13:58:56;24.90;36.00
3699;DHT22;1865;50.918;7.092;2022-10-04T14:16:36;24.30;38.10
3699;DHT22;1865;50.918;7.092;2022-10-04T14:25:00;24.20;39.00
3699;DHT22;1865;50.918;7.092;2022-10-04T14:33:23;23.90;39.00
3699;DHT22;1865;50.918;7.092;2022-10-04T14:36:25;23.80;39.30
3699;DHT22;1865;50.918;7.092;2022-10-04T14:39:23;23.80;39.20
3699;DHT22;1865;50.918;7.092;2022-10-04T14:44:58;23.70;40.30
3699;DHT22;1865;50.918;7.092;2022-10-04T14:48:07;23.80;40.50
3699;DHT22;1865;50.918;7.092;2022-10-04T14:56:20;24.10;40.60
3699;DHT22;1865;50.918;7.092;2022-10-04T14:58:52;24.00;40.00
3699;DHT22;1865;50.918;7.092;2022-10-04T15:01:23;24.00;40.90
3699;DHT22;1865;50.918;7.092;2022-10-04T15:04:06;24.00;40.90
3699;DHT22;1865;50.918;7.092;2022-10-04T15:09:54;24.00;40.30
3699;DHT22;1865;50.918;7.092;2022-10-04T15:20:54;23.80;42.00
3699;DHT22;1865;50.918;7.092;2022-10-04T15:23:40;23.70;41.90
3699;DHT22;1865;50.918;7.092;2022-10-04T15:28:50;23.70;42.10
3699;DHT22;1865;50.918;7.092;2022-10-04T15:31:25;23.70;42.10
3699;DHT22;1865;50.918;7.092;2022-10-04T15:36:55;23.50;42.40
3699;DHT22;1865;50.918;7.092;2022-10-04T15:42:20;23.60;42.30
3699;DHT22;1865;50.918;7.092;2022-10-04T15:50:25;23.40;43.20
3699;DHT22;1865;50.918;7.092;2022-10-04T15:52:56;23.40;43.20
3699;DHT22;1865;50.918;7.092;2022-10-04T15:55:55;23.40;43.20
3699;DHT22;1865;50.918;7.092;2022-10-04T16:01:19;23.40;43.70
3699;DHT22;1865;50.918;7.092;2022-10-04T16:06:52;23.40;43.90
3699;DHT22;1865;50.918;7.092;2022-10-04T16:09:48;23.20;44.00
3699;DHT22;1865;50.918;7.092;2022-10-04T16:12:29;23.20;44.00
3699;DHT22;1865;50.918;7.092;2022-10-04T16:15:44;23.10;44.70
3699;DHT22;1865;50.918;7.092;2022-10-04T16:20:47;22.80;44.90
3699;DHT22;1865;50.918;7.092;2022-10-04T16:23:30;22.80;45.50
3699;DHT22;1865;50.918;7.092;2022-10-04T16:26:12;22.60;45.30
3699;DHT22;1865;50.918;7.092;2022-10-04T16:29:15;22.50;45.40
3699;DHT22;1865;50.918;7.092;2022-10-04T16:31:58;22.40;46.00
3699;DHT22;1865;50.918;7.092;2022-10-04T16:48:07;21.90;47.50
3699;DHT22;1865;50.918;7.092;2022-10-04T16:51:12;21.80;47.80
3699;DHT22;1865;50.918;7.092;2022-10-04T16:53:57;21.70;48.40
3699;DHT22;1865;50.918;7.092;2022-10-04T17:08:16;21.30;49.00
3699;DHT22;1865;50.918;7.092;2022-10-04T17:13:36;21.00;49.50
3699;DHT22;1865;50.918;7.092;2022-10-04T17:16:19;20.90;49.80
3699;DHT22;1865;50.918;7.092;2022-10-04T17:24:59;20.70;50.70
3699;DHT22;1865;50.918;7.092;2022-10-04T17:27:43;20.50;50.90
3699;DHT22;1865;50.918;7.092;2022-10-04T17:30:25;20.40;50.90
3699;DHT22;1865;50.918;7.092;2022-10-04T17:38:59;20.30;51.30
3699;DHT22;1865;50.918;7.092;2022-10-04T17:41:40;20.20;51.40
3699;DHT22;1865;50.918;7.092;2022-10-04T17:47:18;20.10;51.50
3699;DHT22;1865;50.918;7.092;2022-10-04T17:50:02;20.10;51.70
3699;DHT22;1865;50.918;7.092;2022-10-04T17:52:54;20.00;51.70
3699;DHT22;1865;50.918;7.092;2022-10-04T17:55:59;20.10;51.50
3699;DHT22;1865;50.918;7.092;2022-10-04T17:58:36;20.00;51.60
3699;DHT22;1865;50.918;7.092;2022-10-04T18:01:09;19.90;52.70
3699;DHT22;1865;50.918;7.092;2022-10-04T18:03:55;19.80;52.10
3699;DHT22;1865;50.918;7.092;2022-10-04T18:12:12;19.50;52.50
3699;DHT22;1865;50.918;7.092;2022-10-04T18:17:49;19.40;52.60
3699;DHT22;1865;50.918;7.092;2022-10-04T18:20:33;19.30;52.50
3699;DHT22;1865;50.918;7.092;2022-10-04T18:23:16;19.20;52.20
3699;DHT22;1865;50.918;7.092;2022-10-04T18:25:44;19.20;52.10
3699;DHT22;1865;50.918;7.092;2022-10-04T18:28:18;19.20;52.00
3699;DHT22;1865;50.918;7.092;2022-10-04T18:33:20;19.20;51.80
3699;DHT22;1865;50.918;7.092;2022-10-04T18:38:22;19.20;52.80
3699;DHT22;1865;50.918;7.092;2022-10-04T18:46:22;18.90;52.70
3699;DHT22;1865;50.918;7.092;2022-10-04T18:49:13;18.80;52.80
3699;DHT22;1865;50.918;7.092;2022-10-04T18:57:31;18.60;54.00
3699;DHT22;1865;50.918;7.092;2022-10-04T19:00:09;18.60;54.00
3699;DHT22;1865;50.918;7.092;2022-10-04T19:05:55;18.40;54.50
3699;DHT22;1865;50.918;7.092;2022-10-04T19:08:54;18.40;53.90
3699;DHT22;1865;50.918;7.092;2022-10-04T19:23:31;17.90;55.40
3699;DHT22;1865;50.918;7.092;2022-10-04T19:26:11;17.90;55.20
3699;DHT22;1865;50.918;7.092;2022-10-04T19:28:47;17.90;55.50
3699;DHT22;1865;50.918;7.092;2022-10-04T19:34:02;17.80;55.70
3699;DHT22;1865;50.918;7.092;2022-10-04T19:39:31;17.80;55.30
3699;DHT22;1865;50.918;7.092;2022-10-04T19:42:02;17.70;55.10
3699;DHT22;1865;50.918;7.092;2022-10-04T19:47:27;17.50;56.00
3699;DHT22;1865;50.918;7.092;2022-10-04T19:50:18;17.40;56.20
3699;DHT22;1865;50.918;7.092;2022-10-04T19:52:51;17.30;55.90
3699;DHT22;1865;50.918;7.092;2022-10-04T19:58:44;17.20;56.50
3699;DHT22;1865;50.918;7.092;2022-10-04T20:01:17;17.30;56.70
3699;DHT22;1865;50.918;7.092;2022-10-04T20:03:43;17.20;56.70
3699;DHT22;1865;50.918;7.092;2022-10-04T20:06:19;17.30;56.60
3699;DHT22;1865;50.918;7.092;2022-10-04T20:13:44;17.30;56.30
3699;DHT22;1865;50.918;7.092;2022-10-04T20:16:11;17.20;56.10
3699;DHT22;1865;50.918;7.092;2022-10-04T20:21:09;17.30;56.00
3699;DHT22;1865;50.918;7.092;2022-10-04T20:23:49;17.20;56.00
3699;DHT22;1865;50.918;7.092;2022-10-04T20:26:39;17.10;56.10
3699;DHT22;1865;50.918;7.092;2022-10-04T20:32:10;17.10;55.90
3699;DHT22;1865;50.918;7.092;2022-10-04T20:35:04;17.20;55.60
3699;DHT22;1865;50.918;7.092;2022-10-04T20:45:43;17.20;55.20
3699;DHT22;1865;50.918;7.092;2022-10-04T20:48:15;17.10;55.00
3699;DHT22;1865;50.918;7.092;2022-10-04T20:50:42;17.10;55.00
3699;DHT22;1865;50.918;7.092;2022-10-04T20:53:27;17.00;55.30
3699;DHT22;1865;50.918;7.092;2022-10-04T20:58:52;17.00;54.90
3699;DHT22;1865;50.918;7.092;2022-10-04T21:01:30;16.90;55.20
3699;DHT22;1865;50.918;7.092;2022-10-04T21:04:20;16.90;55.20
3699;DHT22;1865;50.918;7.092;2022-10-04T21:06:56;16.90;55.10
3699;DHT22;1865;50.918;7.092;2022-10-04T21:09:23;16.80;55.10
3699;DHT22;1865;50.918;7.092;2022-10-04T21:11:51;16.80;55.30
3699;DHT22;1865;50.918;7.092;2022-10-04T21:14:23;16.70;55.60
3699;DHT22;1865;50.918;7.092;2022-10-04T21:16:52;16.70;55.60
3699;DHT22;1865;50.918;7.092;2022-10-04T21:22:07;16.60;55.50
3699;DHT22;1865;50.918;7.092;2022-10-04T21:27:23;16.40;56.40
3699;DHT22;1865;50.918;7.092;2022-10-04T21:29:50;16.40;56.40
3699;DHT22;1865;50.918;7.092;2022-10-04T21:32:21;16.30;56.50
3699;DHT22;1865;50.918;7.092;2022-10-04T21:34:47;16.30;56.40
3699;DHT22;1865;50.918;7.092;2022-10-04T21:37:14;16.20;56.60
3699;DHT22;1865;50.918;7.092;2022-10-04T21:39:40;16.20;56.80
3699;DHT22;1865;50.918;7.092;2022-10-04T21:42:05;16.10;57.00
3699;DHT22;1865;50.918;7.092;2022-10-04T21:44:30;16.10;56.90
3699;DHT22;1865;50.918;7.092;2022-10-04T21:46:56;16.10;57.00
3699;DHT22;1865;50.918;7.092;2022-10-04T21:49:21;16.20;57.20
3699;DHT22;1865;50.918;7.092;2022-10-04T21:51:47;16.20;57.00
3699;DHT22;1865;50.918;7.092;2022-10-04T21:54:14;16.20;56.90
3699;DHT22;1865;50.918;7.092;2022-10-04T21:56:40;16.20;56.90
3699;DHT22;1865;50.918;7.092;2022-10-04T21:59:08;16.10;56.90
3699;DHT22;1865;50.918;7.092;2022-10-04T22:01:34;16.10;57.20
3699;DHT22;1865;50.918;7.092;2022-10-04T22:03:59;16.10;57.00
3699;DHT22;1865;50.918;7.092;2022-10-04T22:06:25;16.10;57.20
3699;DHT22;1865;50.918;7.092;2022-10-04T22:08:52;16.00;57.30
3699;DHT22;1865;50.918;7.092;2022-10-04T22:11:17;16.10;57.90
3699;DHT22;1865;50.918;7.092;2022-10-04T22:13:46;16.10;57.10
3699;DHT22;1865;50.918;7.092;2022-10-04T22:16:13;16.10;57.30
3699;DHT22;1865;50.918;7.092;2022-10-04T22:18:39;16.00;57.20
3699;DHT22;1865;50.918;7.092;2022-10-04T22:21:04;16.10;57.40
3699;DHT22;1865;50.918;7.092;2022-10-04T22:23:36;16.10;57.50
3699;DHT22;1865;50.918;7.092;2022-10-04T22:26:12;16.10;57.50
3699;DHT22;1865;50.918;7.092;2022-10-04T22:28:51;16.10;57.40
3699;DHT22;1865;50.918;7.092;2022-10-04T22:31:21;16.10;57.10
3699;DHT22;1865;50.918;7.092;2022-10-04T22:33:49;16.10;57.20
3699;DHT22;1865;50.918;7.092;2022-10-04T22:36:21;16.10;56.80
3699;DHT22;1865;50.918;7.092;2022-10-04T22:39:02;16.10;56.90
3699;DHT22;1865;50.918;7.092;2022-10-04T22:41:32;16.10;56.80
3699;DHT22;1865;50.918;7.092;2022-10-04T22:44:20;16.00;56.60
3699;DHT22;1865;50.918;7.092;2022-10-04T22:46:52;16.00;56.70
3699;DHT22;1865;50.918;7.092;2022-10-04T22:49:21;15.90;56.80
3699;DHT22;1865;50.918;7.092;2022-10-04T22:51:48;15.80;57.20
3699;DHT22;1865;50.918;7.092;2022-10-04T22:54:17;15.80;57.00
3699;DHT22;1865;50.918;7.092;2022-10-04T22:56:43;15.70;56.90
3699;DHT22;1865;50.918;7.092;2022-10-04T22:59:13;15.70;57.30
3699;DHT22;1865;50.918;7.092;2022-10-04T23:01:39;15.60;57.60
3699;DHT22;1865;50.918;7.092;2022-10-04T23:04:21;15.50;57.50
3699;DHT22;1865;50.918;7.092;2022-10-04T23:06:47;15.50;57.80
3699;DHT22;1865;50.918;7.092;2022-10-04T23:09:13;15.60;57.70
3699;DHT22;1865;50.918;7.092;2022-10-04T23:11:38;15.50;57.80
3699;DHT22;1865;50.918;7.092;2022-10-04T23:14:04;15.30;58.30
3699;DHT22;1865;50.918;7.092;2022-10-04T23:16:30;15.30;58.60
3699;DHT22;1865;50.918;7.092;2022-10-04T23:19:07;15.40;58.60
3699;DHT22;1865;50.918;7.092;2022-10-04T23:21:37;15.40;58.40
3699;DHT22;1865;50.918;7.092;2022-10-04T23:24:17;15.40;58.20
3699;DHT22;1865;50.918;7.092;2022-10-04T23:26:54;15.50;57.80
3699;DHT22;1865;50.918;7.092;2022-10-04T23:31:47;15.40;57.80
3699;DHT22;1865;50.918;7.092;2022-10-04T23:34:33;15.40;58.00
3699;DHT22;1865;50.918;7.092;2022-10-04T23:36:59;15.40;57.90
3699;DHT22;1865;50.918;7.092;2022-10-04T23:39:31;15.40;57.80
3699;DHT22;1865;50.918;7.092;2022-10-04T23:41:59;15.30;57.60
3699;DHT22;1865;50.918;7.092;2022-10-04T23:44:36;15.30;57.90
3699;DHT22;1865;50.918;7.092;2022-10-04T23:47:07;15.20;57.70
3699;DHT22;1865;50.918;7.092;2022-10-04T23:49:35;15.20;57.80
3699;DHT22;1865;50.918;7.092;2022-10-04T23:52:02;15.20;58.10
3699;DHT22;1865;50.918;7.092;2022-10-04T23:54:28;15.10;58.10
3699;DHT22;1865;50.918;7.092;2022-10-04T23:56:55;15.10;58.10
3699;DHT22;1865;50.918;7.092;2022-10-04T23:59:22;15.10;57.90
